Mandoudi — SV3198 — position and weather

sailwx.info

Track history (hours):
 
Tides and Currents Weather Stations Pressure Air Temp Water Temp Dewpoint Dewpoint Depression Visibility Wind Speed Wind Dir Waves Ship Positions

Mandoudi

Last reported at 2016-Dec-05 15:33 UTC. Time now 2016-Dec-05 16:32 UTC.
Position N 37°58' E 023°37'.

Length 60 m; draft 4.6 m.

Type: Ship (hazmat cat A). MMSI: 237470200.

Date/timePositionNaut miles runAvg speedWind from/ knotsBaromVisibWave heightAir tempDewpointWater temp
2016-Dec-05 15:33N 37°58' E 023°37'0 0.0
2016-Dec-05 14:33N 37°58' E 023°37'0 0.0
2016-Dec-05 13:33N 37°58' E 023°37'0 0.0
2016-Dec-05 12:33N 37°58' E 023°37'0 0.0
2016-Dec-05 11:33N 37°58' E 023°37'0 0.0
2016-Dec-05 10:33N 37°58' E 023°37'0 0.0
2016-Dec-05 09:33N 37°58' E 023°37'0 0.0
2016-Dec-05 08:33N 37°58' E 023°37'0 0.0
2016-Dec-05 07:33N 37°58' E 023°37'0 0.0
2016-Dec-05 06:33N 37°58' E 023°37'0 0.0
2016-Dec-05 05:33N 37°58' E 023°37'0 0.0
2016-Dec-05 04:33N 37°58' E 023°37'0 0.0
2016-Dec-05 03:33N 37°58' E 023°37'0 0.0
2016-Dec-05 02:33N 37°58' E 023°37'0 0.0
2016-Dec-05 01:30N 37°58' E 023°37'0 0.0
2016-Dec-05 00:33N 37°58' E 023°37'0 0.0
2016-Dec-04 23:33N 37°58' E 023°37'0 0.0
2016-Dec-04 22:33N 37°58' E 023°37'0 0.0
2016-Dec-04 21:33N 37°58' E 023°37'0 0.0
2016-Dec-04 20:33N 37°58' E 023°37'0 0.0
2016-Dec-04 19:33N 37°58' E 023°37'0 0.0
2016-Dec-04 18:33N 37°58' E 023°37'0 0.0
2016-Dec-04 17:33N 37°58' E 023°37'0 0.0
2016-Dec-04 16:33N 37°58' E 023°37'0 0.0
2016-Dec-04 15:33N 37°58' E 023°37'0 0.0
2016-Dec-04 14:32N 37°58' E 023°37'0 0.0
2016-Dec-04 13:33N 37°58' E 023°37'0 0.0
2016-Dec-04 12:33N 37°58' E 023°37'0 0.0
2016-Dec-04 11:33N 37°58' E 023°37'0 0.0
2016-Dec-04 10:33N 37°58' E 023°37'0 0.0
2016-Dec-04 09:33N 37°58' E 023°37'2 2.0
2016-Dec-04 08:33N 37°56' E 023°35'2 2.0
2016-Dec-04 07:33N 37°55' E 023°33'4 4.0
2016-Dec-04 06:33N 37°58' E 023°37'0 0.0
2016-Dec-04 05:33N 37°58' E 023°37'0 0.0
2016-Dec-04 04:33N 37°58' E 023°37'0 0.0
2016-Dec-04 03:33N 37°58' E 023°37'0 0.0
2016-Dec-04 02:33N 37°58' E 023°37'0 0.0
2016-Dec-04 01:33N 37°58' E 023°37'0 0.0
2016-Dec-04 00:33N 37°58' E 023°37'0 0.0
2016-Dec-03 23:33N 37°58' E 023°37'0 0.0
2016-Dec-03 22:33N 37°58' E 023°37'0 0.0
2016-Dec-03 21:33N 37°58' E 023°37'0 0.0
2016-Dec-03 20:34N 37°58' E 023°37'0 0.0
2016-Dec-03 19:33N 37°58' E 023°37'0 0.0
2016-Dec-03 18:33N 37°58' E 023°37'0 0.0
2016-Dec-03 17:33N 37°58' E 023°37'0 0.0
2016-Dec-03 16:33N 37°58' E 023°37'0 0.0
2016-Dec-03 15:33N 37°58' E 023°37'0 0.0
2016-Dec-03 14:33N 37°58' E 023°37'0 0.0
2016-Dec-03 13:33N 37°58' E 023°37'0 0.0
2016-Dec-03 12:33N 37°58' E 023°37'0 0.0
2016-Dec-03 11:33N 37°58' E 023°37'0 0.0
2016-Dec-02 17:20N 37°58' E 023°36'6 8.1
2016-Dec-02 16:33N 37°52' E 023°32'0 0.4
2016-Dec-02 15:33N 37°52' E 023°32'0 0.0
2016-Dec-02 14:33N 37°52' E 023°32'1 1.0
2016-Dec-02 13:33N 37°53' E 023°32'6 4.7
2016-Dec-02 12:16N 37°57' E 023°38'0 0.0
2016-Dec-02 11:33N 37°57' E 023°38'0 0.0
2016-Dec-02 10:17N 37°57' E 023°38'0 0.0
2016-Dec-02 09:33N 37°57' E 023°38'0 0.0
2016-Dec-02 07:04N 37°57' E 023°38'1 1.7
2016-Dec-02 06:10N 37°58' E 023°37'0 0.0
2016-Dec-02 05:30N 37°58' E 023°37'0 0.0
2016-Dec-02 04:28N 37°58' E 023°37'0 0.0
2016-Dec-02 03:24N 37°58' E 023°37'0 0.0
2016-Dec-02 02:31N 37°58' E 023°37'0 0.0
2016-Dec-02 00:29N 37°58' E 023°37'0 0.0
2016-Dec-01 23:31N 37°58' E 023°37'0 0.0
2016-Dec-01 22:22N 37°58' E 023°37'0 0.0
2016-Dec-01 21:33N 37°58' E 023°37'0 0.0
2016-Dec-01 20:32N 37°58' E 023°37'0 0.0
2016-Dec-01 10:33N 37°58' E 023°37'0 0.0
2016-Dec-01 09:33N 37°58' E 023°37'0 0.0
2016-Dec-01 08:33N 37°58' E 023°37'0 0.0
2016-Dec-01 07:33N 37°58' E 023°37'0 0.0
2016-Dec-01 06:28N 37°58' E 023°37'3 3.6
2016-Dec-01 05:33N 37°59' E 023°33'3 3.2
2016-Dec-01 04:34N 38°02' E 023°31'0 0.0
2016-Dec-01 03:33N 38°02' E 023°31'0 0.0
2016-Dec-01 02:33N 38°02' E 023°31'0 0.0
2016-Dec-01 01:33N 38°02' E 023°31'0 0.0
2016-Dec-01 00:34N 38°02' E 023°31'0 0.0
2016-Nov-30 23:33N 38°02' E 023°31'0 0.0
2016-Nov-30 22:33N 38°02' E 023°31'0 0.0
2016-Nov-30 21:33N 38°02' E 023°31'1 0.8
2016-Nov-30 20:33N 38°02' E 023°31'0 0.1
2016-Nov-30 19:34N 38°02' E 023°31'0 0.0
2016-Nov-30 18:33N 38°02' E 023°31'0 0.0
2016-Nov-30 17:33N 38°02' E 023°31'0 0.0
2016-Nov-30 16:33N 38°02' E 023°31'0 0.0
2016-Nov-30 15:34N 38°02' E 023°31'1 0.7
2016-Nov-30 14:33N 38°02' E 023°31'0 0.0
2016-Nov-30 13:33N 38°02' E 023°31'0 0.0
2016-Nov-30 12:33N 38°02' E 023°31'0 0.1
2016-Nov-30 11:33N 38°02' E 023°31'7 6.8
2016-Nov-30 10:33N 37°56' E 023°37'1 0.9
2016-Nov-30 09:33N 37°56' E 023°38'0 0.0
2016-Nov-30 08:33N 37°56' E 023°38'0 0.0
2016-Nov-30 07:33N 37°56' E 023°38'1 1.5
2016-Nov-30 06:33N 37°57' E 023°37'0 0.1
2016-Nov-30 05:33N 37°58' E 023°37'0 0.0
2016-Nov-30 04:33N 37°58' E 023°37'0 0.0
2016-Nov-30 03:33N 37°58' E 023°37'0 0.0
2016-Nov-30 02:33N 37°58' E 023°37'0 0.0
2016-Nov-30 01:33N 37°58' E 023°37'0 0.0
2016-Nov-30 00:33N 37°58' E 023°37'0 0.0
2016-Nov-29 23:33N 37°58' E 023°37'0 0.0
2016-Nov-29 22:33N 37°58' E 023°37'0 0.0
2016-Nov-29 21:33N 37°58' E 023°37'0 0.0
2016-Nov-29 20:33N 37°58' E 023°37'0 0.0
2016-Nov-29 19:33N 37°58' E 023°37'0 0.0
2016-Nov-29 18:33N 37°58' E 023°37'0 0.0
2016-Nov-29 17:33N 37°58' E 023°37'0 0.0
2016-Nov-29 16:33N 37°58' E 023°37'0 0.0
2016-Nov-29 15:33N 37°58' E 023°37'0 0.0
2016-Nov-29 14:33N 37°58' E 023°37'1 0.6
2016-Nov-29 13:33N 37°57' E 023°36'6 5.6
2016-Nov-29 12:33N 38°02' E 023°32'0 0.0
2016-Nov-29 11:33N 38°02' E 023°31'3 3.5
2016-Nov-29 10:33N 37°58' E 023°33'5 4.7
2016-Nov-29 09:33N 37°56' E 023°38'0 0.0
2016-Nov-29 08:33N 37°56' E 023°38'0 0.0
2016-Nov-29 07:33N 37°56' E 023°38'0 0.0
2016-Nov-29 06:33N 37°56' E 023°38'2 1.7
2016-Nov-29 05:33N 37°58' E 023°37'0 0.0
2016-Nov-29 04:33N 37°58' E 023°37'0 0.0
2016-Nov-29 03:33N 37°58' E 023°37'0 0.0
2016-Nov-29 02:33N 37°58' E 023°37'0 0.0
2016-Nov-29 01:33N 37°58' E 023°37'0 0.0
2016-Nov-29 00:33N 37°58' E 023°37'0 0.0
2016-Nov-28 23:33N 37°58' E 023°37'0 0.0
2016-Nov-28 22:33N 37°58' E 023°37'0 0.0
2016-Nov-28 21:33N 37°58' E 023°37'0 0.0
2016-Nov-28 20:33N 37°58' E 023°37'0 0.0
2016-Nov-28 19:33N 37°58' E 023°37'0 0.0
2016-Nov-28 18:33N 37°58' E 023°37'6 5.8
2016-Nov-28 17:33N 38°02' E 023°31'1 0.8
2016-Nov-28 16:33N 38°02' E 023°31'0 0.0
2016-Nov-28 15:34N 38°02' E 023°31'0 0.0
2016-Nov-28 14:33N 38°02' E 023°31'4 3.9
2016-Nov-28 13:33N 38°02' E 023°36'0 0.0
2016-Nov-28 12:34N 38°02' E 023°36'0 0.0
2016-Nov-28 11:34N 38°02' E 023°36'3 2.8
2016-Nov-28 10:33N 37°60' E 023°33'5 5.0
2016-Nov-28 09:33N 37°56' E 023°38'0 0.4
2016-Nov-28 08:33N 37°57' E 023°38'0 0.0
2016-Nov-28 07:32N 37°57' E 023°38'0 0.0
2016-Nov-28 06:33N 37°57' E 023°38'2 1.5
2016-Nov-28 05:33N 37°58' E 023°37'0 0.0
2016-Nov-28 04:33N 37°58' E 023°37'0 0.0
2016-Nov-28 03:33N 37°58' E 023°37'0 0.0
2016-Nov-28 02:33N 37°58' E 023°37'0 0.0
2016-Nov-28 01:33N 37°58' E 023°37'0 0.0
2016-Nov-28 00:33N 37°58' E 023°37'0 0.0
2016-Nov-27 23:33N 37°58' E 023°37'0 0.0
2016-Nov-27 22:33N 37°58' E 023°37'0 0.0
2016-Nov-27 21:33N 37°58' E 023°37'0 0.0
2016-Nov-27 20:33N 37°58' E 023°37'0 0.0
2016-Nov-27 19:33N 37°58' E 023°37'0 0.0
2016-Nov-27 18:33N 37°58' E 023°37'0 0.0
2016-Nov-27 17:32N 37°58' E 023°37'0 0.0
2016-Nov-27 16:33N 37°58' E 023°37'0 0.0
2016-Nov-27 15:33N 37°58' E 023°37'0 0.0
2016-Nov-27 14:33N 37°58' E 023°37'0 0.0
2016-Nov-27 13:33N 37°58' E 023°37'0 0.0
2016-Nov-27 12:33N 37°58' E 023°37'0 0.0
2016-Nov-27 11:33N 37°58' E 023°37'3 2.9
2016-Nov-27 10:33N 37°57' E 023°33'4 4.0
2016-Nov-27 09:33N 38°01' E 023°32'0 0.0
2016-Nov-27 08:33N 38°01' E 023°32'2 1.5
2016-Nov-27 07:33N 38°00' E 023°33'6 5.5
2016-Nov-27 06:33N 37°57' E 023°38'0 0.0
2016-Nov-27 05:33N 37°57' E 023°38'1 0.7
2016-Nov-27 04:33N 37°56' E 023°37'1 1.4
2016-Nov-27 03:33N 37°58' E 023°37'0 0.0
2016-Nov-27 02:33N 37°58' E 023°37'0 0.0
2016-Nov-27 01:33N 37°58' E 023°37'0 0.0
2016-Nov-27 00:33N 37°58' E 023°37'0 0.0
2016-Nov-26 23:33N 37°58' E 023°37'0 0.0
2016-Nov-26 22:33N 37°58' E 023°37'0 0.0
2016-Nov-26 21:33N 37°58' E 023°37'0 0.0
2016-Nov-26 20:33N 37°58' E 023°37'0 0.0
2016-Nov-26 19:33N 37°58' E 023°37'0 0.0
2016-Nov-26 18:33N 37°58' E 023°37'0 0.0
2016-Nov-26 17:33N 37°58' E 023°37'0 0.0
2016-Nov-26 16:33N 37°58' E 023°37'0 0.0
2016-Nov-26 15:33N 37°58' E 023°37'0 0.0
2016-Nov-26 14:33N 37°58' E 023°37'0 0.0
2016-Nov-26 13:33N 37°58' E 023°37'0 0.0
2016-Nov-26 12:33N 37°58' E 023°37'0 0.0
2016-Nov-26 11:33N 37°58' E 023°37'0 0.0
2016-Nov-26 10:33N 37°58' E 023°37'1 1.2
2016-Nov-26 09:33N 37°56' E 023°37'1 0.9
2016-Nov-26 08:33N 37°56' E 023°38'0 0.0
2016-Nov-26 07:33N 37°56' E 023°38'1 1.0
2016-Nov-26 06:33N 37°56' E 023°37'1 1.1
2016-Nov-26 05:33N 37°58' E 023°37'0 0.0
2016-Nov-26 04:33N 37°58' E 023°37'0 0.0
2016-Nov-26 03:33N 37°58' E 023°37'0 0.0
2016-Nov-26 02:33N 37°58' E 023°37'0 0.0
2016-Nov-26 01:33N 37°58' E 023°37'0 0.0
2016-Nov-26 00:33N 37°58' E 023°37'0 0.0
2016-Nov-25 23:33N 37°58' E 023°37'0 0.0
2016-Nov-25 22:33N 37°58' E 023°37'0 0.0
2016-Nov-25 21:33N 37°58' E 023°37'0 0.0
2016-Nov-25 20:33N 37°58' E 023°37'0 0.0
2016-Nov-25 19:33N 37°58' E 023°37'0 0.0
2016-Nov-25 18:33N 37°58' E 023°37'0 0.0
2016-Nov-25 17:33N 37°58' E 023°37'0 0.0
2016-Nov-25 16:33N 37°58' E 023°37'  
Track history (hours):
 
Tides and Currents Weather Stations Pressure Air Temp Water Temp Dewpoint Dewpoint Depression Visibility Wind Speed Wind Dir Waves Ship Positions

Mandoudi

Last reported at 2016-Dec-05 15:33 UTC. Time now 2016-Dec-05 16:32 UTC.
Position N 37°58' E 023°37'.

Length 60 m; draft 4.6 m.

Type: Ship (hazmat cat A). MMSI: 237470200.

Date/timePositionNaut miles runAvg speedWind from/ knotsBaromVisibWave heightAir tempDewpointWater temp
2016-Dec-05 15:33N 37°58' E 023°37'0 0.0
2016-Dec-05 14:33N 37°58' E 023°37'0 0.0
2016-Dec-05 13:33N 37°58' E 023°37'0 0.0
2016-Dec-05 12:33N 37°58' E 023°37'0 0.0
2016-Dec-05 11:33N 37°58' E 023°37'0 0.0
2016-Dec-05 10:33N 37°58' E 023°37'0 0.0
2016-Dec-05 09:33N 37°58' E 023°37'0 0.0
2016-Dec-05 08:33N 37°58' E 023°37'0 0.0
2016-Dec-05 07:33N 37°58' E 023°37'0 0.0
2016-Dec-05 06:33N 37°58' E 023°37'0 0.0
2016-Dec-05 05:33N 37°58' E 023°37'0 0.0
2016-Dec-05 04:33N 37°58' E 023°37'0 0.0
2016-Dec-05 03:33N 37°58' E 023°37'0 0.0
2016-Dec-05 02:33N 37°58' E 023°37'0 0.0
2016-Dec-05 01:30N 37°58' E 023°37'0 0.0
2016-Dec-05 00:33N 37°58' E 023°37'0 0.0
2016-Dec-04 23:33N 37°58' E 023°37'0 0.0
2016-Dec-04 22:33N 37°58' E 023°37'0 0.0
2016-Dec-04 21:33N 37°58' E 023°37'0 0.0
2016-Dec-04 20:33N 37°58' E 023°37'0 0.0
2016-Dec-04 19:33N 37°58' E 023°37'0 0.0
2016-Dec-04 18:33N 37°58' E 023°37'0 0.0
2016-Dec-04 17:33N 37°58' E 023°37'0 0.0
2016-Dec-04 16:33N 37°58' E 023°37'0 0.0
2016-Dec-04 15:33N 37°58' E 023°37'0 0.0
2016-Dec-04 14:32N 37°58' E 023°37'0 0.0
2016-Dec-04 13:33N 37°58' E 023°37'0 0.0
2016-Dec-04 12:33N 37°58' E 023°37'0 0.0
2016-Dec-04 11:33N 37°58' E 023°37'0 0.0
2016-Dec-04 10:33N 37°58' E 023°37'0 0.0
2016-Dec-04 09:33N 37°58' E 023°37'2 2.0
2016-Dec-04 08:33N 37°56' E 023°35'2 2.0
2016-Dec-04 07:33N 37°55' E 023°33'4 4.0
2016-Dec-04 06:33N 37°58' E 023°37'0 0.0
2016-Dec-04 05:33N 37°58' E 023°37'0 0.0
2016-Dec-04 04:33N 37°58' E 023°37'0 0.0
2016-Dec-04 03:33N 37°58' E 023°37'0 0.0
2016-Dec-04 02:33N 37°58' E 023°37'0 0.0
2016-Dec-04 01:33N 37°58' E 023°37'0 0.0
2016-Dec-04 00:33N 37°58' E 023°37'0 0.0
2016-Dec-03 23:33N 37°58' E 023°37'0 0.0
2016-Dec-03 22:33N 37°58' E 023°37'0 0.0
2016-Dec-03 21:33N 37°58' E 023°37'0 0.0
2016-Dec-03 20:34N 37°58' E 023°37'0 0.0
2016-Dec-03 19:33N 37°58' E 023°37'0 0.0
2016-Dec-03 18:33N 37°58' E 023°37'0 0.0
2016-Dec-03 17:33N 37°58' E 023°37'0 0.0
2016-Dec-03 16:33N 37°58' E 023°37'0 0.0
2016-Dec-03 15:33N 37°58' E 023°37'0 0.0
2016-Dec-03 14:33N 37°58' E 023°37'0 0.0
2016-Dec-03 13:33N 37°58' E 023°37'0 0.0
2016-Dec-03 12:33N 37°58' E 023°37'0 0.0
2016-Dec-03 11:33N 37°58' E 023°37'0 0.0
2016-Dec-02 17:20N 37°58' E 023°36'6 8.1
2016-Dec-02 16:33N 37°52' E 023°32'0 0.4
2016-Dec-02 15:33N 37°52' E 023°32'0 0.0
2016-Dec-02 14:33N 37°52' E 023°32'1 1.0
2016-Dec-02 13:33N 37°53' E 023°32'6 4.7
2016-Dec-02 12:16N 37°57' E 023°38'0 0.0
2016-Dec-02 11:33N 37°57' E 023°38'0 0.0
2016-Dec-02 10:17N 37°57' E 023°38'0 0.0
2016-Dec-02 09:33N 37°57' E 023°38'0 0.0
2016-Dec-02 07:04N 37°57' E 023°38'1 1.7
2016-Dec-02 06:10N 37°58' E 023°37'0 0.0
2016-Dec-02 05:30N 37°58' E 023°37'0 0.0
2016-Dec-02 04:28N 37°58' E 023°37'0 0.0
2016-Dec-02 03:24N 37°58' E 023°37'0 0.0
2016-Dec-02 02:31N 37°58' E 023°37'0 0.0
2016-Dec-02 00:29N 37°58' E 023°37'0 0.0
2016-Dec-01 23:31N 37°58' E 023°37'0 0.0
2016-Dec-01 22:22N 37°58' E 023°37'0 0.0
2016-Dec-01 21:33N 37°58' E 023°37'0 0.0
2016-Dec-01 20:32N 37°58' E 023°37'0 0.0
2016-Dec-01 10:33N 37°58' E 023°37'0 0.0
2016-Dec-01 09:33N 37°58' E 023°37'0 0.0
2016-Dec-01 08:33N 37°58' E 023°37'0 0.0
2016-Dec-01 07:33N 37°58' E 023°37'0 0.0
2016-Dec-01 06:28N 37°58' E 023°37'3 3.6
2016-Dec-01 05:33N 37°59' E 023°33'3 3.2
2016-Dec-01 04:34N 38°02' E 023°31'0 0.0
2016-Dec-01 03:33N 38°02' E 023°31'0 0.0
2016-Dec-01 02:33N 38°02' E 023°31'0 0.0
2016-Dec-01 01:33N 38°02' E 023°31'0 0.0
2016-Dec-01 00:34N 38°02' E 023°31'0 0.0
2016-Nov-30 23:33N 38°02' E 023°31'0 0.0
2016-Nov-30 22:33N 38°02' E 023°31'0 0.0
2016-Nov-30 21:33N 38°02' E 023°31'1 0.8
2016-Nov-30 20:33N 38°02' E 023°31'0 0.1
2016-Nov-30 19:34N 38°02' E 023°31'0 0.0
2016-Nov-30 18:33N 38°02' E 023°31'0 0.0
2016-Nov-30 17:33N 38°02' E 023°31'0 0.0
2016-Nov-30 16:33N 38°02' E 023°31'0 0.0
2016-Nov-30 15:34N 38°02' E 023°31'1 0.7
2016-Nov-30 14:33N 38°02' E 023°31'0 0.0
2016-Nov-30 13:33N 38°02' E 023°31'0 0.0
2016-Nov-30 12:33N 38°02' E 023°31'0 0.1
2016-Nov-30 11:33N 38°02' E 023°31'7 6.8
2016-Nov-30 10:33N 37°56' E 023°37'1 0.9
2016-Nov-30 09:33N 37°56' E 023°38'0 0.0
2016-Nov-30 08:33N 37°56' E 023°38'0 0.0
2016-Nov-30 07:33N 37°56' E 023°38'1 1.5
2016-Nov-30 06:33N 37°57' E 023°37'0 0.1
2016-Nov-30 05:33N 37°58' E 023°37'0 0.0
2016-Nov-30 04:33N 37°58' E 023°37'0 0.0
2016-Nov-30 03:33N 37°58' E 023°37'0 0.0
2016-Nov-30 02:33N 37°58' E 023°37'0 0.0
2016-Nov-30 01:33N 37°58' E 023°37'0 0.0
2016-Nov-30 00:33N 37°58' E 023°37'0 0.0
2016-Nov-29 23:33N 37°58' E 023°37'0 0.0
2016-Nov-29 22:33N 37°58' E 023°37'0 0.0
2016-Nov-29 21:33N 37°58' E 023°37'0 0.0
2016-Nov-29 20:33N 37°58' E 023°37'0 0.0
2016-Nov-29 19:33N 37°58' E 023°37'0 0.0
2016-Nov-29 18:33N 37°58' E 023°37'0 0.0
2016-Nov-29 17:33N 37°58' E 023°37'0 0.0
2016-Nov-29 16:33N 37°58' E 023°37'0 0.0
2016-Nov-29 15:33N 37°58' E 023°37'0 0.0
2016-Nov-29 14:33N 37°58' E 023°37'1 0.6
2016-Nov-29 13:33N 37°57' E 023°36'6 5.6
2016-Nov-29 12:33N 38°02' E 023°32'0 0.0
2016-Nov-29 11:33N 38°02' E 023°31'3 3.5
2016-Nov-29 10:33N 37°58' E 023°33'5 4.7
2016-Nov-29 09:33N 37°56' E 023°38'0 0.0
2016-Nov-29 08:33N 37°56' E 023°38'0 0.0
2016-Nov-29 07:33N 37°56' E 023°38'0 0.0
2016-Nov-29 06:33N 37°56' E 023°38'2 1.7
2016-Nov-29 05:33N 37°58' E 023°37'0 0.0
2016-Nov-29 04:33N 37°58' E 023°37'0 0.0
2016-Nov-29 03:33N 37°58' E 023°37'0 0.0
2016-Nov-29 02:33N 37°58' E 023°37'0 0.0
2016-Nov-29 01:33N 37°58' E 023°37'0 0.0
2016-Nov-29 00:33N 37°58' E 023°37'0 0.0
2016-Nov-28 23:33N 37°58' E 023°37'0 0.0
2016-Nov-28 22:33N 37°58' E 023°37'0 0.0
2016-Nov-28 21:33N 37°58' E 023°37'0 0.0
2016-Nov-28 20:33N 37°58' E 023°37'0 0.0
2016-Nov-28 19:33N 37°58' E 023°37'0 0.0
2016-Nov-28 18:33N 37°58' E 023°37'6 5.8
2016-Nov-28 17:33N 38°02' E 023°31'1 0.8
2016-Nov-28 16:33N 38°02' E 023°31'0 0.0
2016-Nov-28 15:34N 38°02' E 023°31'0 0.0
2016-Nov-28 14:33N 38°02' E 023°31'4 3.9
2016-Nov-28 13:33N 38°02' E 023°36'0 0.0
2016-Nov-28 12:34N 38°02' E 023°36'0 0.0
2016-Nov-28 11:34N 38°02' E 023°36'3 2.8
2016-Nov-28 10:33N 37°60' E 023°33'5 5.0
2016-Nov-28 09:33N 37°56' E 023°38'0 0.4
2016-Nov-28 08:33N 37°57' E 023°38'0 0.0
2016-Nov-28 07:32N 37°57' E 023°38'0 0.0
2016-Nov-28 06:33N 37°57' E 023°38'2 1.5
2016-Nov-28 05:33N 37°58' E 023°37'0 0.0
2016-Nov-28 04:33N 37°58' E 023°37'0 0.0
2016-Nov-28 03:33N 37°58' E 023°37'0 0.0
2016-Nov-28 02:33N 37°58' E 023°37'0 0.0
2016-Nov-28 01:33N 37°58' E 023°37'0 0.0
2016-Nov-28 00:33N 37°58' E 023°37'0 0.0
2016-Nov-27 23:33N 37°58' E 023°37'0 0.0
2016-Nov-27 22:33N 37°58' E 023°37'0 0.0
2016-Nov-27 21:33N 37°58' E 023°37'0 0.0
2016-Nov-27 20:33N 37°58' E 023°37'0 0.0
2016-Nov-27 19:33N 37°58' E 023°37'0 0.0
2016-Nov-27 18:33N 37°58' E 023°37'0 0.0
2016-Nov-27 17:32N 37°58' E 023°37'0 0.0
2016-Nov-27 16:33N 37°58' E 023°37'0 0.0
2016-Nov-27 15:33N 37°58' E 023°37'0 0.0
2016-Nov-27 14:33N 37°58' E 023°37'0 0.0
2016-Nov-27 13:33N 37°58' E 023°37'0 0.0
2016-Nov-27 12:33N 37°58' E 023°37'0 0.0
2016-Nov-27 11:33N 37°58' E 023°37'3 2.9
2016-Nov-27 10:33N 37°57' E 023°33'4 4.0
2016-Nov-27 09:33N 38°01' E 023°32'0 0.0
2016-Nov-27 08:33N 38°01' E 023°32'2 1.5
2016-Nov-27 07:33N 38°00' E 023°33'6 5.5
2016-Nov-27 06:33N 37°57' E 023°38'0 0.0
2016-Nov-27 05:33N 37°57' E 023°38'1 0.7
2016-Nov-27 04:33N 37°56' E 023°37'1 1.4
2016-Nov-27 03:33N 37°58' E 023°37'0 0.0
2016-Nov-27 02:33N 37°58' E 023°37'0 0.0
2016-Nov-27 01:33N 37°58' E 023°37'0 0.0
2016-Nov-27 00:33N 37°58' E 023°37'0 0.0
2016-Nov-26 23:33N 37°58' E 023°37'0 0.0
2016-Nov-26 22:33N 37°58' E 023°37'0 0.0
2016-Nov-26 21:33N 37°58' E 023°37'0 0.0
2016-Nov-26 20:33N 37°58' E 023°37'0 0.0
2016-Nov-26 19:33N 37°58' E 023°37'0 0.0
2016-Nov-26 18:33N 37°58' E 023°37'0 0.0
2016-Nov-26 17:33N 37°58' E 023°37'0 0.0
2016-Nov-26 16:33N 37°58' E 023°37'0 0.0
2016-Nov-26 15:33N 37°58' E 023°37'0 0.0
2016-Nov-26 14:33N 37°58' E 023°37'0 0.0
2016-Nov-26 13:33N 37°58' E 023°37'0 0.0
2016-Nov-26 12:33N 37°58' E 023°37'0 0.0
2016-Nov-26 11:33N 37°58' E 023°37'0 0.0
2016-Nov-26 10:33N 37°58' E 023°37'1 1.2
2016-Nov-26 09:33N 37°56' E 023°37'1 0.9
2016-Nov-26 08:33N 37°56' E 023°38'0 0.0
2016-Nov-26 07:33N 37°56' E 023°38'1 1.0
2016-Nov-26 06:33N 37°56' E 023°37'1 1.1
2016-Nov-26 05:33N 37°58' E 023°37'0 0.0
2016-Nov-26 04:33N 37°58' E 023°37'0 0.0
2016-Nov-26 03:33N 37°58' E 023°37'0 0.0
2016-Nov-26 02:33N 37°58' E 023°37'0 0.0
2016-Nov-26 01:33N 37°58' E 023°37'0 0.0
2016-Nov-26 00:33N 37°58' E 023°37'0 0.0
2016-Nov-25 23:33N 37°58' E 023°37'0 0.0
2016-Nov-25 22:33N 37°58' E 023°37'0 0.0
2016-Nov-25 21:33N 37°58' E 023°37'0 0.0
2016-Nov-25 20:33N 37°58' E 023°37'0 0.0
2016-Nov-25 19:33N 37°58' E 023°37'0 0.0
2016-Nov-25 18:33N 37°58' E 023°37'0 0.0
2016-Nov-25 17:33N 37°58' E 023°37'0 0.0
2016-Nov-25 16:33N 37°58' E 023°37'  

Dump ship's entire track history